createdAt,value
2022-12-27T00:00:06.968Z,84
2022-12-27T00:05:09.000Z,84
2022-12-27T00:10:10.950Z,84
2022-12-27T00:15:12.186Z,84
2022-12-27T00:20:14.094Z,83
2022-12-27T00:25:15.882Z,84
2022-12-27T00:30:17.239Z,81
2022-12-27T00:35:19.245Z,80
2022-12-27T00:40:21.464Z,79
2022-12-27T00:45:22.758Z,78
2022-12-27T00:50:24.183Z,78
2022-12-27T00:55:26.014Z,77
2022-12-27T01:00:28.033Z,77
2022-12-27T01:05:29.898Z,77
2022-12-27T01:10:31.719Z,77
2022-12-27T01:15:33.706Z,77
2022-12-27T01:25:36.572Z,76
2022-12-27T01:30:38.228Z,76
2022-12-27T01:40:41.640Z,75
2022-12-27T01:45:43.227Z,75
2022-12-27T01:55:46.046Z,74
2022-12-27T02:05:49.376Z,74
2022-12-27T02:10:51.243Z,75
2022-12-27T02:15:52.526Z,75
2022-12-27T02:20:54.180Z,75
2022-12-27T02:25:55.920Z,76
2022-12-27T02:30:57.224Z,76
2022-12-27T02:35:58.729Z,75
2022-12-27T02:46:02.821Z,75
2022-12-27T02:51:04.373Z,75
2022-12-27T02:56:05.719Z,74
2022-12-27T03:01:07.133Z,75
2022-12-27T03:06:08.935Z,74
2022-12-27T03:11:10.317Z,74
2022-12-27T03:16:12.303Z,73
2022-12-27T03:21:14.054Z,73
2022-12-27T03:26:15.924Z,71
2022-12-27T03:31:17.516Z,71
2022-12-27T03:36:18.968Z,70
2022-12-27T03:41:20.872Z,69
2022-12-27T03:46:22.202Z,70
2022-12-27T03:51:23.635Z,70
2022-12-27T03:56:25.151Z,68
2022-12-27T04:01:27.416Z,68
2022-12-27T04:06:28.631Z,68
2022-12-27T04:11:30.022Z,67
2022-12-27T04:16:31.797Z,67
2022-12-27T04:21:32.905Z,67
2022-12-27T04:26:34.149Z,67
2022-12-27T04:31:35.809Z,67
2022-12-27T04:36:37.570Z,67
2022-12-27T04:41:39.271Z,67
2022-12-27T04:46:41.480Z,67
2022-12-27T04:51:42.954Z,68
2022-12-27T04:56:44.151Z,69
2022-12-27T05:01:46.370Z,70
2022-12-27T05:06:47.968Z,71
2022-12-27T05:11:49.641Z,71
2022-12-27T05:16:51.291Z,71
2022-12-27T05:21:53.258Z,71
2022-12-27T05:26:54.592Z,72
2022-12-27T05:31:56.349Z,72
2022-12-27T05:36:57.930Z,73
2022-12-27T05:41:59.497Z,73
2022-12-27T05:47:01.069Z,73
2022-12-27T05:52:02.217Z,73
2022-12-27T05:57:03.388Z,73
2022-12-27T06:02:05.601Z,72
2022-12-27T06:07:07.662Z,72
2022-12-27T06:12:08.888Z,72
2022-12-27T06:17:10.663Z,72
2022-12-27T06:22:12.036Z,71
2022-12-27T06:27:14.150Z,71
2022-12-27T06:32:15.935Z,71
2022-12-27T06:37:17.287Z,71
2022-12-27T06:42:18.570Z,71
2022-12-27T06:47:20.086Z,71
2022-12-27T06:52:21.823Z,71
2022-12-27T06:57:23.428Z,71
2022-12-27T07:02:25.048Z,71
2022-12-27T07:07:26.122Z,71
2022-12-27T07:12:30.571Z,71
2022-12-27T07:17:29.569Z,72
2022-12-27T07:22:30.930Z,72
2022-12-27T07:27:32.894Z,71
2022-12-27T07:32:34.211Z,71
2022-12-27T07:37:36.085Z,71
2022-12-27T07:42:38.068Z,71
2022-12-27T07:47:40.167Z,70
2022-12-27T07:52:42.247Z,69
2022-12-27T07:57:43.977Z,68
2022-12-27T08:02:46.165Z,71
2022-12-27T08:02:52.429Z,71
2022-12-27T08:07:54.248Z,68
2022-12-27T08:12:56.420Z,66
2022-12-27T08:17:58.246Z,62
2022-12-27T08:23:00.434Z,60
2022-12-27T08:28:02.311Z,59
2022-12-27T08:33:04.484Z,55
2022-12-27T08:38:06.497Z,51
2022-12-27T08:43:08.111Z,49
2022-12-27T08:48:09.793Z,47
2022-12-27T08:53:11.403Z,45
2022-12-27T08:58:15.916Z,42
2022-12-27T09:03:14.763Z,39
2022-12-27T09:08:16.773Z,39
2022-12-27T09:13:18.734Z,39
2022-12-27T09:18:20.600Z,36
2022-12-27T09:23:22.305Z,35
2022-12-27T09:28:23.515Z,36
2022-12-27T09:33:25.687Z,33
2022-12-27T09:38:27.199Z,33
2022-12-27T09:43:28.393Z,32
2022-12-27T09:48:33.186Z,34
2022-12-27T09:53:31.785Z,31
2022-12-27T09:58:33.588Z,30
2022-12-27T10:03:35.563Z,29
2022-12-27T10:08:37.013Z,28
2022-12-27T10:13:38.874Z,27
2022-12-27T10:18:40.774Z,26
2022-12-27T10:23:42.629Z,26
2022-12-27T10:28:44.575Z,25
2022-12-27T10:33:45.852Z,25
2022-12-27T10:38:47.724Z,26
2022-12-27T10:43:49.766Z,24
2022-12-27T10:49:19.301Z,25
2022-12-27T10:53:52.530Z,23
2022-12-27T10:58:58.677Z,24
2022-12-27T11:03:56.150Z,25
2022-12-27T11:08:58.020Z,27
2022-12-27T11:14:00.023Z,28
2022-12-27T11:19:01.426Z,29
2022-12-27T11:24:02.647Z,31
2022-12-27T11:29:04.516Z,33
2022-12-27T11:34:06.518Z,33
2022-12-27T11:39:08.678Z,34
2022-12-27T11:44:10.806Z,35
2022-12-27T11:49:12.121Z,36
2022-12-27T11:54:13.868Z,36
2022-12-27T11:59:15.517Z,37
2022-12-27T12:04:17.479Z,37
2022-12-27T12:09:19.072Z,38
2022-12-27T12:14:20.542Z,39
2022-12-27T12:19:22.554Z,39
2022-12-27T12:24:24.109Z,40
2022-12-27T12:29:25.713Z,41
2022-12-27T12:34:27.617Z,42
2022-12-27T12:39:29.593Z,41
2022-12-27T12:44:33.105Z,42
2022-12-27T12:49:32.378Z,43
2022-12-27T12:54:33.545Z,43
2022-12-27T12:59:35.678Z,43
2022-12-27T13:04:37.764Z,43
2022-12-27T13:09:38.966Z,44
2022-12-27T13:14:40.876Z,44
2022-12-27T13:19:42.162Z,44
2022-12-27T13:24:44.064Z,45
2022-12-27T13:29:45.187Z,45
2022-12-27T13:34:46.977Z,45
2022-12-27T13:39:48.442Z,45
2022-12-27T13:44:49.947Z,45
2022-12-27T13:49:51.976Z,45
2022-12-27T13:54:53.590Z,45
2022-12-27T13:59:55.465Z,46
2022-12-27T14:04:59.585Z,46
2022-12-27T14:09:58.740Z,46
2022-12-27T14:15:00.756Z,47
2022-12-27T14:20:02.517Z,47
2022-12-27T14:25:03.636Z,47
2022-12-27T14:30:05.714Z,48
2022-12-27T14:35:06.904Z,49
2022-12-27T14:40:08.819Z,48
2022-12-27T14:45:10.860Z,49
2022-12-27T14:50:12.233Z,50
2022-12-27T14:55:13.565Z,50
2022-12-27T15:00:15.096Z,51
2022-12-27T15:05:16.495Z,51
2022-12-27T15:10:18.485Z,53
2022-12-27T15:15:19.938Z,53
2022-12-27T15:20:21.298Z,54
2022-12-27T15:25:23.057Z,53
2022-12-27T15:30:24.315Z,55
2022-12-27T15:35:26.233Z,55
2022-12-27T15:40:27.638Z,55
2022-12-27T15:45:28.959Z,56
2022-12-27T15:50:31.124Z,56
2022-12-27T15:55:32.617Z,58
2022-12-27T16:00:34.907Z,58
2022-12-27T16:05:36.555Z,59
2022-12-27T16:15:40.033Z,61
2022-12-27T16:30:45.579Z,63
2022-12-27T16:35:47.072Z,63
2022-12-27T16:40:48.261Z,63
2022-12-27T16:45:50.411Z,64
2022-12-27T16:50:51.921Z,64
2022-12-27T16:55:54.009Z,64
2022-12-27T17:00:55.686Z,64
2022-12-27T17:16:01.181Z,65
2022-12-27T17:21:03.309Z,65
2022-12-27T17:26:05.268Z,67
2022-12-27T17:31:07.101Z,66
2022-12-27T17:36:08.514Z,66
2022-12-27T17:41:15.333Z,66
2022-12-27T17:46:12.299Z,66
2022-12-27T17:51:14.379Z,67
2022-12-27T17:56:16.468Z,67
2022-12-27T18:01:17.988Z,68
2022-12-27T18:06:19.680Z,68
2022-12-27T18:11:26.372Z,68
2022-12-27T18:16:23.345Z,68
2022-12-27T18:21:25.518Z,69
2022-12-27T18:26:26.758Z,69
2022-12-27T18:31:28.889Z,69
2022-12-27T18:36:30.084Z,69
2022-12-27T18:41:32.201Z,69
2022-12-27T18:46:33.418Z,70
2022-12-27T18:51:35.294Z,70
2022-12-27T18:56:37.095Z,70
2022-12-27T19:01:38.552Z,70
2022-12-27T19:06:40.604Z,71
2022-12-27T19:11:41.790Z,72
2022-12-27T19:16:43.957Z,72
2022-12-27T19:21:45.879Z,72
2022-12-27T19:26:46.996Z,71
2022-12-27T19:31:48.691Z,72
2022-12-27T19:36:50.863Z,73
2022-12-27T19:41:52.714Z,72
2022-12-27T19:46:54.306Z,73
2022-12-27T19:51:56.238Z,73
2022-12-27T19:56:57.625Z,73
2022-12-27T20:01:59.296Z,74
2022-12-27T20:07:00.935Z,73
2022-12-27T20:12:02.456Z,73
2022-12-27T20:17:04.384Z,74
2022-12-27T20:22:05.590Z,75
2022-12-27T20:27:06.825Z,75
2022-12-27T20:32:08.875Z,74
2022-12-27T20:37:10.400Z,74
2022-12-27T20:42:12.308Z,75
2022-12-27T20:47:14.473Z,75
2022-12-27T20:52:16.214Z,75
2022-12-27T20:57:17.437Z,75
2022-12-27T21:02:18.865Z,76
2022-12-27T21:07:20.729Z,76
2022-12-27T21:12:22.780Z,76
2022-12-27T21:17:24.859Z,76
2022-12-27T21:22:26.972Z,76
2022-12-27T21:27:28.119Z,76
2022-12-27T21:32:29.279Z,77
2022-12-27T21:37:30.646Z,77
2022-12-27T21:42:32.075Z,76
2022-12-27T21:47:33.980Z,77
2022-12-27T21:52:35.596Z,77
2022-12-27T21:57:36.868Z,76
2022-12-27T22:02:39.168Z,76
2022-12-27T22:07:40.561Z,77
2022-12-27T22:12:42.122Z,78
2022-12-27T22:17:43.674Z,77
2022-12-27T22:22:45.632Z,77
2022-12-27T22:27:46.904Z,77
2022-12-27T22:32:48.958Z,79
2022-12-27T22:37:50.281Z,79
2022-12-27T22:42:52.108Z,79
2022-12-27T22:47:54.334Z,79
2022-12-27T22:52:55.526Z,79
2022-12-27T22:57:57.326Z,79
2022-12-27T23:02:58.722Z,78
2022-12-27T23:08:03.940Z,79
2022-12-27T23:13:09.950Z,78
2022-12-27T23:18:03.993Z,79
2022-12-27T23:23:06.139Z,80
2022-12-27T23:28:07.551Z,79
2022-12-27T23:33:09.214Z,80
2022-12-27T23:38:10.738Z,80
2022-12-27T23:43:50.244Z,79
2022-12-27T23:48:14.320Z,79
2022-12-27T23:53:15.621Z,79
2022-12-27T23:58:17.697Z,79
